Time;durP1;ratioP1;P1;durP2;ratioP2;P2;SDS_P1;SDS_P2;PMS_P1;PMS_P2;Temp;Humidity;BMP_temperature;BMP_pressure;BME280_temperature;BME280_humidity;BME280_pressure;Samples;Min_cycle;Max_cycle;Signal;HPM_P1;HPM_P2
2021/09/18 00:00:50;;;;;;;17.27;10.43;;;;;;;;;;5015146;28;20050;-69
2021/09/18 00:03:18;;;;;;;20.13;11.00;;;;;;;;;;5015074;28;20076;-69
2021/09/18 00:05:45;;;;;;;19.00;11.23;;;;;;;;;;5014926;28;20062;-69
2021/09/18 00:08:12;;;;;;;18.35;12.98;;;;;;;;;;5014970;28;20376;-69
2021/09/18 00:10:39;;;;;;;15.57;10.93;;;;;;;;;;5014757;28;20045;-67
2021/09/18 00:13:06;;;;;;;19.40;11.80;;;;;;;;;;5014589;28;20498;-66
2021/09/18 00:15:34;;;;;;;19.65;12.88;;;;;;;;;;5014439;28;20054;-68
2021/09/18 00:18:01;;;;;;;19.30;13.07;;;;;;;;;;5014780;28;20133;-67
2021/09/18 00:20:30;;;;;;;18.55;11.75;;;;;;;;;;5014666;28;20056;-66
2021/09/18 00:22:57;;;;;;;19.77;12.63;;;;;;;;;;5014984;28;20058;-66
2021/09/18 00:25:24;;;;;;;19.13;11.38;;;;;;;;;;5012818;28;20159;-66
2021/09/18 00:27:51;;;;;;;20.13;13.23;;;;;;;;;;5014549;28;20052;-66
2021/09/18 00:30:18;;;;;;;22.38;13.07;;;;;;;;;;5014334;28;20053;-67
2021/09/18 00:32:45;;;;;;;21.00;12.73;;;;;;;;;;5014484;28;20494;-66
2021/09/18 00:35:12;;;;;;;21.52;12.65;;;;;;;;;;5013920;28;20057;-67
2021/09/18 00:37:41;;;;;;;21.17;12.88;;;;;;;;;;5014626;28;20060;-69
2021/09/18 00:40:10;;;;;;;22.58;13.55;;;;;;;;;;5014070;28;20326;-69
2021/09/18 00:42:37;;;;;;;20.08;11.27;;;;;;;;;;5014147;28;20523;-67
2021/09/18 00:45:04;;;;;;;22.40;13.80;;;;;;;;;;5013859;28;20050;-67
2021/09/18 00:47:33;;;;;;;22.73;14.20;;;;;;;;;;5013996;28;20045;-66
2021/09/18 00:50:00;;;;;;;22.38;13.68;;;;;;;;;;5013897;28;20050;-67
2021/09/18 00:52:29;;;;;;;19.88;13.02;;;;;;;;;;5014008;28;20519;-66
2021/09/18 00:54:57;;;;;;;21.17;13.75;;;;;;;;;;5009545;28;20051;-67
2021/09/18 00:57:24;;;;;;;22.48;13.48;;;;;;;;;;4994294;28;20137;-66
2021/09/18 00:59:51;;;;;;;21.80;13.65;;;;;;;;;;4994254;28;20060;-66
2021/09/18 01:02:19;;;;;;;23.73;14.60;;;;;;;;;;4994261;28;20133;-66
2021/09/18 01:04:46;;;;;;;23.65;14.73;;;;;;;;;;4993984;28;20137;-67
2021/09/18 01:07:13;;;;;;;26.27;15.48;;;;;;;;;;4994222;28;20492;-67
2021/09/18 01:09:40;;;;;;;24.00;14.68;;;;;;;;;;4993872;28;20496;-67
2021/09/18 01:12:09;;;;;;;22.90;12.98;;;;;;;;;;4994165;28;20372;-67
2021/09/18 01:14:37;;;;;;;20.15;12.63;;;;;;;;;;4994054;28;20504;-68
2021/09/18 01:17:04;;;;;;;22.42;13.75;;;;;;;;;;4993936;28;20065;-68
2021/09/18 01:19:31;;;;;;;25.15;14.07;;;;;;;;;;4993909;28;20463;-68
2021/09/18 01:21:59;;;;;;;24.17;14.05;;;;;;;;;;4994051;28;20057;-69
2021/09/18 01:24:28;;;;;;;21.83;12.77;;;;;;;;;;4993427;28;20096;-68
2021/09/18 01:26:54;;;;;;;25.27;14.90;;;;;;;;;;4993914;28;20137;-68
2021/09/18 01:29:21;;;;;;;25.58;15.00;;;;;;;;;;4993664;28;20146;-68
2021/09/18 01:31:49;;;;;;;29.90;15.85;;;;;;;;;;4993629;28;20053;-69
2021/09/18 01:34:19;;;;;;;28.02;15.35;;;;;;;;;;4993353;28;20567;-68
2021/09/18 01:36:46;;;;;;;25.38;15.48;;;;;;;;;;4990671;28;20097;-68
2021/09/18 01:39:13;;;;;;;25.63;14.75;;;;;;;;;;4993597;28;20042;-68
2021/09/18 01:41:43;;;;;;;28.73;15.70;;;;;;;;;;4993701;28;20051;-68
2021/09/18 01:44:11;;;;;;;27.20;15.75;;;;;;;;;;4993151;28;20066;-68
2021/09/18 01:46:38;;;;;;;29.27;15.43;;;;;;;;;;4993439;28;20057;-68
2021/09/18 01:49:05;;;;;;;27.02;15.75;;;;;;;;;;4993105;28;20054;-68
2021/09/18 01:51:37;;;;;;;25.23;13.85;;;;;;;;;;4993360;28;20057;-68
2021/09/18 01:54:04;;;;;;;28.52;14.68;;;;;;;;;;4993316;28;20060;-68
2021/09/18 01:56:31;;;;;;;22.45;12.85;;;;;;;;;;5010453;28;20075;-68
2021/09/18 01:58:59;;;;;;;24.30;13.30;;;;;;;;;;5012924;28;20050;-68
2021/09/18 02:01:26;;;;;;;22.83;14.15;;;;;;;;;;5012813;28;20128;-68
2021/09/18 02:03:53;;;;;;;21.88;12.40;;;;;;;;;;5012451;28;20054;-67
2021/09/18 02:06:20;;;;;;;20.20;11.60;;;;;;;;;;5012746;28;20049;-68
2021/09/18 02:08:47;;;;;;;19.02;11.73;;;;;;;;;;5012641;28;20049;-67
2021/09/18 02:11:14;;;;;;;18.15;11.63;;;;;;;;;;5012617;28;20046;-68
2021/09/18 02:13:41;;;;;;;17.02;10.13;;;;;;;;;;5012432;28;20415;-68
2021/09/18 02:16:10;;;;;;;16.58;10.18;;;;;;;;;;4995145;28;20060;-67
2021/09/18 02:18:37;;;;;;;18.10;10.60;;;;;;;;;;5012494;28;20050;-67
2021/09/18 02:21:04;;;;;;;15.90;9.57;;;;;;;;;;5012580;28;20109;-68
2021/09/18 02:23:31;;;;;;;16.23;9.88;;;;;;;;;;5012074;28;20052;-67
2021/09/18 02:25:58;;;;;;;14.90;9.75;;;;;;;;;;5012484;28;20062;-68
2021/09/18 02:28:26;;;;;;;19.45;11.38;;;;;;;;;;5012407;28;20053;-68
2021/09/18 02:30:53;;;;;;;21.67;12.98;;;;;;;;;;5012213;28;20050;-68
2021/09/18 02:33:21;;;;;;;21.58;11.88;;;;;;;;;;5012228;28;20132;-67
2021/09/18 02:35:48;;;;;;;25.80;12.38;;;;;;;;;;5012743;28;20426;-67
2021/09/18 02:38:15;;;;;;;23.48;14.52;;;;;;;;;;5012287;28;20053;-68
2021/09/18 02:40:42;;;;;;;27.08;14.55;;;;;;;;;;5012211;28;20068;-67
2021/09/18 02:43:09;;;;;;;22.80;13.95;;;;;;;;;;5011927;28;20557;-67
2021/09/18 02:45:36;;;;;;;23.27;13.25;;;;;;;;;;5012081;28;20346;-67
2021/09/18 02:48:04;;;;;;;24.70;13.73;;;;;;;;;;5011310;28;20491;-68
2021/09/18 02:50:32;;;;;;;21.17;12.85;;;;;;;;;;5012135;28;20053;-68
2021/09/18 02:52:59;;;;;;;24.63;13.95;;;;;;;;;;5011982;28;20050;-68
2021/09/18 02:55:26;;;;;;;26.63;13.70;;;;;;;;;;5003591;28;20046;-68
2021/09/18 02:57:53;;;;;;;24.48;12.90;;;;;;;;;;4992462;28;20055;-68
2021/09/18 03:00:20;;;;;;;24.27;13.07;;;;;;;;;;4992480;28;20412;-67
2021/09/18 03:02:47;;;;;;;23.83;13.90;;;;;;;;;;4992368;28;20382;-68
2021/09/18 03:05:15;;;;;;;26.85;13.93;;;;;;;;;;4992321;28;20046;-68
2021/09/18 03:07:43;;;;;;;24.48;11.25;;;;;;;;;;4992473;28;20050;-68
2021/09/18 03:10:12;;;;;;;18.23;11.13;;;;;;;;;;4992782;28;20050;-67
2021/09/18 03:12:40;;;;;;;17.73;10.40;;;;;;;;;;4992217;28;20051;-67
2021/09/18 03:15:08;;;;;;;17.30;10.23;;;;;;;;;;4992084;28;20054;-67
2021/09/18 03:17:36;;;;;;;14.95;9.45;;;;;;;;;;4992321;28;20150;-67
2021/09/18 03:20:04;;;;;;;17.42;9.40;;;;;;;;;;4992399;28;20054;-67
2021/09/18 03:22:31;;;;;;;15.68;9.27;;;;;;;;;;4992307;28;20060;-67
2021/09/18 03:24:59;;;;;;;15.68;9.02;;;;;;;;;;4991856;28;20056;-69
2021/09/18 03:27:26;;;;;;;16.83;9.30;;;;;;;;;;4992350;28;20385;-68
2021/09/18 03:29:53;;;;;;;15.70;9.07;;;;;;;;;;4992063;28;20054;-67
2021/09/18 03:32:20;;;;;;;17.05;8.93;;;;;;;;;;4992530;28;20512;-67
2021/09/18 03:34:47;;;;;;;13.77;8.73;;;;;;;;;;4992338;28;20050;-67
2021/09/18 03:37:14;;;;;;;14.05;7.72;;;;;;;;;;4992335;28;20130;-67
2021/09/18 03:39:41;;;;;;;12.75;8.23;;;;;;;;;;4991949;28;20077;-68
2021/09/18 03:42:09;;;;;;;16.13;8.95;;;;;;;;;;4992266;28;20057;-68
2021/09/18 03:44:36;;;;;;;13.10;8.82;;;;;;;;;;4991766;28;20066;-67
2021/09/18 03:47:04;;;;;;;15.38;8.38;;;;;;;;;;4992282;28;20042;-68
2021/09/18 03:49:30;;;;;;;13.05;8.55;;;;;;;;;;4992008;28;20407;-68
2021/09/18 03:51:57;;;;;;;12.48;8.02;;;;;;;;;;4992509;28;20061;-68
2021/09/18 03:54:24;;;;;;;14.25;8.73;;;;;;;;;;4991799;28;20065;-67
2021/09/18 03:56:51;;;;;;;12.07;7.65;;;;;;;;;;4972969;28;20412;-68
2021/09/18 03:59:21;;;;;;;14.70;8.43;;;;;;;;;;4973760;28;20055;-68
2021/09/18 04:01:48;;;;;;;12.65;7.90;;;;;;;;;;4976350;28;20050;-68
2021/09/18 04:04:15;;;;;;;15.88;8.02;;;;;;;;;;4976093;28;20054;-67
2021/09/18 04:06:42;;;;;;;19.27;9.45;;;;;;;;;;4976166;28;20063;-67
2021/09/18 04:09:09;;;;;;;13.25;8.27;;;;;;;;;;4976187;28;20408;-67
2021/09/18 04:11:36;;;;;;;14.05;9.80;;;;;;;;;;4976134;28;20054;-67
2021/09/18 04:14:03;;;;;;;15.82;9.27;;;;;;;;;;4976020;28;20054;-67
2021/09/18 04:16:32;;;;;;;14.93;8.00;;;;;;;;;;4976045;28;20053;-69
2021/09/18 04:18:58;;;;;;;16.17;8.98;;;;;;;;;;4975637;28;20055;-68
2021/09/18 04:21:26;;;;;;;15.82;9.75;;;;;;;;;;4975786;28;20054;-68
2021/09/18 04:23:53;;;;;;;13.73;8.50;;;;;;;;;;4975346;28;20516;-68
2021/09/18 04:26:20;;;;;;;16.67;9.10;;;;;;;;;;4975707;28;20408;-70
2021/09/18 04:28:47;;;;;;;14.13;9.10;;;;;;;;;;4975831;28;20054;-68
2021/09/18 04:31:14;;;;;;;16.42;9.60;;;;;;;;;;4975424;28;20069;-68
2021/09/18 04:33:42;;;;;;;15.18;9.52;;;;;;;;;;4975193;28;20047;-69
2021/09/18 04:36:09;;;;;;;16.63;10.40;;;;;;;;;;4975630;28;20053;-68
2021/09/18 04:38:36;;;;;;;16.02;10.57;;;;;;;;;;4975661;28;20228;-68
2021/09/18 04:41:03;;;;;;;15.70;9.30;;;;;;;;;;4975040;28;20408;-69
2021/09/18 04:43:30;;;;;;;18.17;10.60;;;;;;;;;;4974907;28;20053;-68
2021/09/18 04:45:57;;;;;;;16.80;10.25;;;;;;;;;;4975313;28;20181;-69
2021/09/18 04:48:23;;;;;;;16.48;10.00;;;;;;;;;;4975063;28;20086;-69
2021/09/18 04:50:52;;;;;;;14.30;9.45;;;;;;;;;;4975034;28;20061;-69
2021/09/18 04:53:19;;;;;;;15.82;8.95;;;;;;;;;;4974844;28;20054;-69
2021/09/18 04:55:46;;;;;;;17.40;10.02;;;;;;;;;;4996867;28;20132;-68
2021/09/18 04:58:13;;;;;;;16.70;9.85;;;;;;;;;;5014051;28;20049;-69
2021/09/18 05:00:40;;;;;;;16.17;10.05;;;;;;;;;;5013622;28;20056;-69
2021/09/18 05:03:08;;;;;;;15.80;9.02;;;;;;;;;;5013765;28;20431;-69
2021/09/18 05:05:35;;;;;;;17.35;8.88;;;;;;;;;;5013978;28;20501;-69
2021/09/18 05:08:03;;;;;;;16.77;9.70;;;;;;;;;;5013879;28;20046;-69
2021/09/18 05:13:08;;;;;;;18.02;9.43;;;;;;;;;;5030730;28;20046;-65
2021/09/18 05:15:35;;;;;;;14.75;8.82;;;;;;;;;;5032778;28;20045;-65
2021/09/18 05:18:03;;;;;;;23.40;12.68;;;;;;;;;;5033582;28;20052;-65
2021/09/18 05:20:30;;;;;;;17.65;10.13;;;;;;;;;;5033071;28;20512;-65
2021/09/18 05:22:57;;;;;;;17.88;10.27;;;;;;;;;;5033138;28;20049;-65
2021/09/18 05:25:25;;;;;;;18.23;10.57;;;;;;;;;;5032700;28;20049;-65
2021/09/18 05:27:52;;;;;;;21.95;13.73;;;;;;;;;;5033062;28;20091;-65
2021/09/18 05:30:19;;;;;;;19.33;11.35;;;;;;;;;;5033053;28;20136;-65
2021/09/18 05:32:46;;;;;;;21.27;11.70;;;;;;;;;;5033098;28;20494;-65
2021/09/18 05:35:13;;;;;;;15.88;9.32;;;;;;;;;;5032678;28;20053;-66
2021/09/18 05:37:40;;;;;;;18.90;9.85;;;;;;;;;;5032974;28;20055;-65
2021/09/18 05:40:09;;;;;;;14.93;7.85;;;;;;;;;;5032793;28;20045;-65
2021/09/18 05:42:38;;;;;;;17.08;10.35;;;;;;;;;;5032650;28;20050;-65
2021/09/18 05:45:06;;;;;;;16.23;9.95;;;;;;;;;;5032654;28;20058;-65
2021/09/18 05:47:33;;;;;;;21.05;10.45;;;;;;;;;;5032674;28;20131;-65
2021/09/18 05:50:00;;;;;;;14.48;8.35;;;;;;;;;;5032665;28;20049;-65
2021/09/18 05:52:27;;;;;;;16.40;7.70;;;;;;;;;;5032726;28;20056;-65
2021/09/18 05:54:54;;;;;;;12.32;6.78;;;;;;;;;;5032274;28;20410;-65
2021/09/18 05:57:21;;;;;;;15.43;8.80;;;;;;;;;;5032576;28;20053;-65
2021/09/18 05:59:49;;;;;;;14.40;8.80;;;;;;;;;;5032405;28;20041;-65
2021/09/18 06:02:16;;;;;;;13.35;8.00;;;;;;;;;;5032435;28;20123;-65
2021/09/18 06:04:43;;;;;;;13.30;8.18;;;;;;;;;;5032340;28;20422;-65
2021/09/18 06:07:11;;;;;;;14.60;7.60;;;;;;;;;;5032447;28;20049;-65
2021/09/18 06:09:38;;;;;;;12.38;6.85;;;;;;;;;;5032149;28;20053;-65
2021/09/18 06:12:05;;;;;;;14.20;8.50;;;;;;;;;;5032101;28;20053;-65
2021/09/18 06:14:32;;;;;;;14.35;8.85;;;;;;;;;;5032344;28;20045;-65
2021/09/18 06:17:00;;;;;;;15.32;8.35;;;;;;;;;;5032288;28;20512;-65
2021/09/18 06:19:29;;;;;;;14.27;8.65;;;;;;;;;;5031969;28;20055;-65
2021/09/18 06:21:56;;;;;;;17.77;9.88;;;;;;;;;;5031900;28;20046;-65
2021/09/18 06:24:23;;;;;;;17.02;9.73;;;;;;;;;;5031902;28;20080;-65
2021/09/18 06:26:50;;;;;;;17.90;9.38;;;;;;;;;;5031945;28;20045;-66
2021/09/18 06:29:17;;;;;;;19.75;11.13;;;;;;;;;;5031941;28;20053;-66
2021/09/18 06:31:44;;;;;;;20.50;11.50;;;;;;;;;;5031812;28;20053;-66
2021/09/18 06:34:12;;;;;;;20.27;11.35;;;;;;;;;;5032238;28;20056;-66
2021/09/18 06:36:39;;;;;;;20.65;12.15;;;;;;;;;;5031723;28;20423;-66
2021/09/18 06:39:06;;;;;;;24.17;13.40;;;;;;;;;;5031831;28;20048;-65
2021/09/18 06:41:33;;;;;;;24.13;14.00;;;;;;;;;;5031821;28;20075;-66
2021/09/18 06:44:00;;;;;;;22.58;12.85;;;;;;;;;;5031846;28;20045;-66
2021/09/18 06:46:27;;;;;;;23.45;12.18;;;;;;;;;;5031610;28;20052;-66
2021/09/18 06:48:54;;;;;;;24.42;13.38;;;;;;;;;;5031651;28;20056;-66
2021/09/18 06:51:22;;;;;;;23.20;12.73;;;;;;;;;;5031427;28;20049;-66
2021/09/18 06:53:49;;;;;;;24.67;14.30;;;;;;;;;;5031385;28;20052;-66
2021/09/18 06:56:16;;;;;;;25.60;13.77;;;;;;;;;;5031619;28;20064;-65
2021/09/18 06:58:43;;;;;;;27.55;15.43;;;;;;;;;;5031445;28;20053;-65
2021/09/18 07:01:10;;;;;;;24.58;14.07;;;;;;;;;;5031248;28;20045;-65
2021/09/18 07:03:39;;;;;;;20.17;12.20;;;;;;;;;;5030610;28;20053;-65
2021/09/18 07:06:06;;;;;;;27.48;14.27;;;;;;;;;;5030843;28;20056;-65
2021/09/18 07:08:34;;;;;;;23.00;13.35;;;;;;;;;;5031554;28;20058;-65
2021/09/18 07:11:01;;;;;;;25.55;14.23;;;;;;;;;;5031097;28;20414;-65
2021/09/18 07:13:29;;;;;;;23.17;12.82;;;;;;;;;;5030645;28;20049;-65
2021/09/18 07:15:56;;;;;;;22.98;12.32;;;;;;;;;;5030911;28;20184;-66
2021/09/18 07:18:23;;;;;;;19.30;12.63;;;;;;;;;;5030970;28;20065;-64
2021/09/18 07:20:50;;;;;;;22.38;12.73;;;;;;;;;;5031214;28;20049;-66
2021/09/18 07:23:17;;;;;;;21.33;10.52;;;;;;;;;;5030530;28;20045;-68
2021/09/18 07:25:45;;;;;;;22.63;11.95;;;;;;;;;;5030894;28;20081;-66
2021/09/18 07:28:13;;;;;;;23.30;13.48;;;;;;;;;;5030909;28;20076;-67
2021/09/18 07:30:40;;;;;;;21.27;12.43;;;;;;;;;;5030476;28;20053;-70
2021/09/18 07:33:07;;;;;;;21.40;11.93;;;;;;;;;;5030616;28;20135;-61
2021/09/18 07:35:34;;;;;;;21.27;11.90;;;;;;;;;;5033918;28;20056;-64
2021/09/18 07:38:04;;;;;;;21.45;12.23;;;;;;;;;;5034088;28;20045;-63
2021/09/18 07:40:32;;;;;;;23.85;13.35;;;;;;;;;;5034239;28;20510;-65
2021/09/18 07:43:01;;;;;;;19.98;12.23;;;;;;;;;;5034429;28;20050;-62
2021/09/18 07:45:28;;;;;;;19.88;11.95;;;;;;;;;;5034176;28;20132;-61
2021/09/18 07:47:55;;;;;;;19.20;10.32;;;;;;;;;;5033935;28;20041;-63
2021/09/18 07:50:23;;;;;;;19.02;12.07;;;;;;;;;;5034230;28;20059;-64
2021/09/18 07:52:50;;;;;;;20.63;11.90;;;;;;;;;;5033841;28;20045;-63
2021/09/18 07:55:17;;;;;;;22.25;12.23;;;;;;;;;;5033826;28;20044;-62
2021/09/18 07:57:44;;;;;;;19.55;12.18;;;;;;;;;;5033869;28;20084;-63
2021/09/18 08:00:13;;;;;;;17.98;11.50;;;;;;;;;;5033669;28;20203;-62
2021/09/18 08:02:40;;;;;;;21.02;11.90;;;;;;;;;;5034213;28;20083;-70
2021/09/18 08:05:08;;;;;;;16.35;10.07;;;;;;;;;;5033753;28;20068;-67
2021/09/18 08:07:38;;;;;;;20.23;13.25;;;;;;;;;;5034095;28;20141;-67
2021/09/18 08:10:10;;;;;;;21.20;11.88;;;;;;;;;;5034502;28;20498;-67
2021/09/18 08:12:45;;;;;;;16.77;10.57;;;;;;;;;;5034086;28;20050;-67
2021/09/18 08:15:15;;;;;;;19.55;11.25;;;;;;;;;;5034331;28;20510;-67
2021/09/18 08:17:44;;;;;;;22.73;12.68;;;;;;;;;;5034466;28;20509;-67
2021/09/18 08:20:12;;;;;;;17.48;11.00;;;;;;;;;;5034501;28;20077;-67
2021/09/18 08:22:43;;;;;;;18.83;11.52;;;;;;;;;;5034087;28;20046;-67
2021/09/18 08:25:11;;;;;;;16.52;10.38;;;;;;;;;;5034058;28;20057;-67
2021/09/18 08:27:38;;;;;;;19.75;11.98;;;;;;;;;;5034251;28;20050;-67
2021/09/18 08:30:09;;;;;;;24.95;17.23;;;;;;;;;;5034075;28;20411;-67
2021/09/18 08:32:40;;;;;;;23.80;14.82;;;;;;;;;;5034083;28;20052;-67
2021/09/18 08:35:11;;;;;;;18.00;10.98;;;;;;;;;;5033752;28;20041;-66
2021/09/18 08:37:38;;;;;;;20.15;12.32;;;;;;;;;;5033908;28;20096;-66
2021/09/18 08:40:07;;;;;;;26.73;15.52;;;;;;;;;;5034001;28;20418;-66
2021/09/18 08:42:40;;;;;;;15.63;10.13;;;;;;;;;;5033921;28;20054;-67
2021/09/18 08:45:15;;;;;;;18.52;11.00;;;;;;;;;;5032853;28;20049;-67
2021/09/18 08:47:44;;;;;;;18.17;11.38;;;;;;;;;;5033728;28;20049;-67
2021/09/18 08:50:15;;;;;;;19.08;10.77;;;;;;;;;;5034062;28;20457;-66
2021/09/18 08:52:43;;;;;;;19.73;10.63;;;;;;;;;;5033469;28;20495;-66
2021/09/18 08:55:13;;;;;;;14.07;8.95;;;;;;;;;;5033589;28;20060;-67
2021/09/18 08:57:43;;;;;;;17.13;11.40;;;;;;;;;;5033480;28;20071;-66
2021/09/18 09:00:43;;;;;;;16.73;9.83;;;;;;;;;;5033416;28;20046;-66
2021/09/18 09:03:12;;;;;;;19.00;10.88;;;;;;;;;;5033060;28;20049;-66
2021/09/18 09:05:42;;;;;;;15.65;9.80;;;;;;;;;;5033473;28;20050;-66
2021/09/18 09:08:11;;;;;;;21.70;15.07;;;;;;;;;;5033221;28;20049;-66
2021/09/18 09:10:42;;;;;;;22.33;14.52;;;;;;;;;;5032916;28;20060;-66
2021/09/18 09:13:11;;;;;;;18.92;12.57;;;;;;;;;;5033062;28;20156;-67
2021/09/18 09:15:39;;;;;;;15.27;9.40;;;;;;;;;;5033306;28;20057;-67
2021/09/18 09:18:19;;;;;;;18.95;11.40;;;;;;;;;;5033223;28;20418;-66
2021/09/18 09:20:47;;;;;;;18.42;11.70;;;;;;;;;;5032965;28;20071;-66
2021/09/18 09:23:19;;;;;;;15.48;9.85;;;;;;;;;;5032721;28;20072;-66
2021/09/18 09:25:50;;;;;;;16.70;9.55;;;;;;;;;;5033129;28;20054;-66
2021/09/18 09:28:31;;;;;;;15.48;8.75;;;;;;;;;;5033269;28;20498;-65
2021/09/18 09:31:10;;;;;;;15.38;8.80;;;;;;;;;;5033034;28;20103;-66
2021/09/18 09:33:57;;;;;;;16.90;9.93;;;;;;;;;;5032536;28;20387;-66
2021/09/18 09:36:24;;;;;;;13.32;8.25;;;;;;;;;;5032806;28;20041;-66
2021/09/18 09:38:52;;;;;;;10.65;6.40;;;;;;;;;;5032654;28;20046;-66
2021/09/18 09:41:31;;;;;;;10.02;5.63;;;;;;;;;;5032676;28;20104;-66
2021/09/18 09:43:58;;;;;;;8.60;5.32;;;;;;;;;;5032328;28;20049;-66
2021/09/18 09:46:26;;;;;;;10.48;5.88;;;;;;;;;;5032457;28;20068;-66
2021/09/18 09:49:05;;;;;;;10.00;5.97;;;;;;;;;;5032583;28;20053;-66
2021/09/18 09:51:33;;;;;;;8.43;5.17;;;;;;;;;;5032695;28;20486;-66
2021/09/18 09:54:20;;;;;;;6.90;4.50;;;;;;;;;;5032303;28;20525;-66
2021/09/18 09:56:48;;;;;;;9.93;6.50;;;;;;;;;;5031940;28;20052;-67
2021/09/18 09:59:28;;;;;;;9.40;5.97;;;;;;;;;;5032209;28;20370;-66
2021/09/18 10:01:55;;;;;;;9.52;6.15;;;;;;;;;;5031954;28;20115;-66
2021/09/18 10:04:24;;;;;;;11.77;7.28;;;;;;;;;;5031803;28;20041;-66
2021/09/18 10:06:51;;;;;;;12.40;7.65;;;;;;;;;;5032011;28;20049;-66
2021/09/18 10:09:18;;;;;;;10.45;6.40;;;;;;;;;;5031930;28;20053;-66
2021/09/18 10:11:46;;;;;;;9.57;7.07;;;;;;;;;;5032210;28;20057;-66
2021/09/18 10:14:20;;;;;;;7.03;4.70;;;;;;;;;;5031808;28;20045;-66
2021/09/18 10:16:49;;;;;;;9.43;4.75;;;;;;;;;;5031953;28;20513;-66
2021/09/18 10:19:17;;;;;;;8.13;5.95;;;;;;;;;;5031663;28;20053;-66
2021/09/18 10:24:35;;;;;;;11.30;6.85;;;;;;;;;;5031736;28;20427;-67
2021/09/18 10:27:16;;;;;;;9.77;6.15;;;;;;;;;;5032019;28;20506;-68
2021/09/18 10:29:43;;;;;;;10.00;7.18;;;;;;;;;;5031597;28;20076;-67
2021/09/18 10:32:10;;;;;;;9.70;5.80;;;;;;;;;;5031631;28;20059;-67
2021/09/18 10:34:37;;;;;;;7.25;4.20;;;;;;;;;;5031127;28;20045;-67
2021/09/18 10:37:28;;;;;;;5.82;3.90;;;;;;;;;;5031490;28;20422;-67
2021/09/18 10:40:01;;;;;;;6.82;3.92;;;;;;;;;;5031092;28;20052;-67
2021/09/18 10:42:34;;;;;;;5.47;3.65;;;;;;;;;;5031373;28;20138;-67
2021/09/18 10:45:01;;;;;;;5.78;3.45;;;;;;;;;;5031706;28;20061;-67
2021/09/18 10:47:36;;;;;;;5.65;3.50;;;;;;;;;;5031952;28;20049;-67
2021/09/18 10:50:04;;;;;;;8.25;5.13;;;;;;;;;;5031843;28;20092;-67
2021/09/18 10:52:36;;;;;;;6.55;4.30;;;;;;;;;;5032198;28;20063;-67
2021/09/18 10:55:13;;;;;;;5.72;4.00;;;;;;;;;;5031283;28;20407;-67
2021/09/18 10:58:06;;;;;;;6.32;3.92;;;;;;;;;;5031649;28;20049;-66
2021/09/18 11:00:54;;;;;;;7.47;4.68;;;;;;;;;;5031317;28;20049;-66
2021/09/18 11:03:34;;;;;;;7.97;5.18;;;;;;;;;;5031095;28;20051;-67
2021/09/18 11:06:01;;;;;;;7.93;4.85;;;;;;;;;;5031670;28;20054;-67
2021/09/18 11:08:35;;;;;;;6.72;4.10;;;;;;;;;;5031684;28;20051;-67
2021/09/18 11:11:04;;;;;;;9.77;5.47;;;;;;;;;;5035591;28;20476;-67
2021/09/18 11:13:34;;;;;;;8.43;5.53;;;;;;;;;;5066465;22;20049;-85
2021/09/18 11:16:05;;;;;;;8.00;5.20;;;;;;;;;;5051435;28;20053;-86
2021/09/18 11:18:33;;;;;;;;;;;;;;;;;;5052818;28;20053;-86
2021/09/18 11:21:12;;;;;;;9.73;5.05;;;;;;;;;;5051655;28;19929;-86
2021/09/18 11:23:42;;;;;;;8.40;5.75;;;;;;;;;;5053323;28;20049;-84
2021/09/18 11:26:42;;;;;;;9.80;6.18;;;;;;;;;;5054572;28;20054;-84
2021/09/18 11:29:11;;;;;;;8.75;5.63;;;;;;;;;;5053754;28;20053;-85
2021/09/18 11:31:38;;;;;;;7.70;5.43;;;;;;;;;;5053415;28;20060;-85
2021/09/18 11:34:06;;;;;;;8.02;5.22;;;;;;;;;;5054325;28;20049;-86
2021/09/18 11:36:44;;;;;;;9.00;5.13;;;;;;;;;;5055569;28;20050;-85
2021/09/18 11:39:51;;;;;;;8.10;4.95;;;;;;;;;;5053425;28;20050;-85
2021/09/18 11:42:41;;;;;;;7.60;5.38;;;;;;;;;;5052931;28;20041;-86
2021/09/18 11:45:18;;;;;;;7.05;4.85;;;;;;;;;;5053557;28;20088;-85
2021/09/18 11:47:48;;;;;;;7.70;4.30;;;;;;;;;;5050660;28;20054;-84
2021/09/18 11:50:26;;;;;;;12.93;4.88;;;;;;;;;;5045249;28;20411;-86
2021/09/18 11:52:56;;;;;;;7.85;4.90;;;;;;;;;;5045739;28;20431;-85
2021/09/18 11:55:37;;;;;;;9.27;5.70;;;;;;;;;;5043905;28;20043;-85
2021/09/18 11:58:10;;;;;;;7.45;4.50;;;;;;;;;;5044376;28;20492;-86
2021/09/18 12:00:39;;;;;;;13.70;6.25;;;;;;;;;;5047506;28;20053;-85
2021/09/18 12:03:06;;;;;;;8.95;5.97;;;;;;;;;;5046468;28;20048;-86
2021/09/18 12:05:33;;;;;;;8.23;5.43;;;;;;;;;;5044791;28;20053;-86
2021/09/18 12:08:00;;;;;;;9.15;5.30;;;;;;;;;;5040971;28;20539;-86
2021/09/18 12:10:27;;;;;;;10.40;5.20;;;;;;;;;;5040550;28;20049;-86
2021/09/18 12:12:58;;;;;;;8.32;4.65;;;;;;;;;;5040645;28;20052;-85
2021/09/18 12:15:32;;;;;;;;;;;;;;;;;;5041837;28;20049;-85
2021/09/18 12:17:59;;;;;;;7.28;4.60;;;;;;;;;;5038530;28;19929;-86
2021/09/18 12:20:27;;;;;;;6.28;3.53;;;;;;;;;;5047509;28;20051;-85
2021/09/18 12:22:54;;;;;;;7.28;3.92;;;;;;;;;;5046051;28;20045;-85
2021/09/18 12:25:30;;;;;;;7.55;4.20;;;;;;;;;;5045555;28;20042;-86
2021/09/18 12:28:00;;;;;;;6.05;4.03;;;;;;;;;;5040613;28;20049;-85
2021/09/18 12:30:38;;;;;;;6.53;3.88;;;;;;;;;;5047740;28;20121;-85
2021/09/18 12:33:10;;;;;;;5.38;3.60;;;;;;;;;;5041131;28;20058;-86
2021/09/18 12:35:39;;;;;;;5.88;3.33;;;;;;;;;;5042971;28;20054;-86
2021/09/18 12:38:07;;;;;;;6.28;3.85;;;;;;;;;;5041332;28;20046;-85
2021/09/18 12:40:49;;;;;;;7.30;4.00;;;;;;;;;;5042129;28;20099;-84
2021/09/18 12:43:20;;;;;;;5.90;3.78;;;;;;;;;;5040821;28;20068;-85
2021/09/18 12:45:48;;;;;;;5.60;3.30;;;;;;;;;;5040011;28;20079;-85
2021/09/18 12:48:21;;;;;;;6.22;3.85;;;;;;;;;;5040090;28;20052;-84
2021/09/18 12:51:02;;;;;;;6.97;3.33;;;;;;;;;;5037320;28;20492;-85
2021/09/18 12:53:31;;;;;;;4.95;3.38;;;;;;;;;;5035897;28;20397;-86
2021/09/18 12:56:09;;;;;;;5.13;3.17;;;;;;;;;;5041903;28;20105;-86
2021/09/18 12:58:40;;;;;;;6.82;4.40;;;;;;;;;;5041801;28;20053;-85
2021/09/18 13:01:08;;;;;;;4.88;3.00;;;;;;;;;;5038537;28;20492;-83
2021/09/18 13:03:36;;;;;;;5.55;3.45;;;;;;;;;;5036869;28;20496;-83
2021/09/18 13:06:05;;;;;;;5.45;3.47;;;;;;;;;;5036045;28;20077;-85
2021/09/18 13:08:47;;;;;;;5.43;3.30;;;;;;;;;;5041168;28;20053;-84
2021/09/18 13:11:16;;;;;;;6.57;3.47;;;;;;;;;;5041423;28;20046;-84
2021/09/18 13:13:45;;;;;;;4.90;2.90;;;;;;;;;;5042088;28;20045;-85
2021/09/18 13:16:13;;;;;;;5.55;3.58;;;;;;;;;;5045657;28;20065;-85
2021/09/18 13:18:40;;;;;;;5.53;3.00;;;;;;;;;;5049389;28;20045;-88
2021/09/18 13:21:08;;;;;;;6.25;3.50;;;;;;;;;;5057760;28;20067;-85
2021/09/18 13:23:35;;;;;;;6.10;3.65;;;;;;;;;;5056862;28;20029;-85
2021/09/18 13:26:03;;;;;;;5.78;3.30;;;;;;;;;;5056251;28;20054;-86
2021/09/18 13:28:31;;;;;;;7.43;3.47;;;;;;;;;;5044095;28;20128;-85
2021/09/18 13:31:00;;;;;;;7.97;3.38;;;;;;;;;;5038569;28;20117;-85
2021/09/18 13:33:30;;;;;;;6.18;3.78;;;;;;;;;;5036883;28;20049;-85
2021/09/18 13:35:57;;;;;;;10.27;3.35;;;;;;;;;;5036532;28;20084;-84
2021/09/18 13:38:23;;;;;;;5.82;3.65;;;;;;;;;;5035576;28;20088;-84
2021/09/18 13:40:50;;;;;;;5.07;3.45;;;;;;;;;;5035760;28;20455;-84
2021/09/18 13:43:17;;;;;;;5.35;3.33;;;;;;;;;;5035020;28;20566;-84
2021/09/18 13:45:44;;;;;;;5.13;3.65;;;;;;;;;;5037390;28;20539;-85
2021/09/18 13:48:13;;;;;;;5.80;3.85;;;;;;;;;;5036098;28;20053;-84
2021/09/18 13:50:40;;;;;;;6.28;3.95;;;;;;;;;;5035032;28;20523;-83
2021/09/18 13:53:08;;;;;;;6.28;3.83;;;;;;;;;;5034807;28;20401;-85
2021/09/18 13:55:35;;;;;;;6.93;4.10;;;;;;;;;;5034628;28;20060;-84
2021/09/18 13:58:03;;;;;;;6.32;4.32;;;;;;;;;;5034685;28;20053;-83
2021/09/18 14:00:30;;;;;;;7.60;4.57;;;;;;;;;;5035700;28;20140;-83
2021/09/18 14:02:59;;;;;;;6.18;4.25;;;;;;;;;;5034111;28;20471;-84
2021/09/18 14:05:27;;;;;;;11.88;9.07;;;;;;;;;;5033910;28;20115;-84
2021/09/18 14:07:54;;;;;;;11.02;8.18;;;;;;;;;;5033880;28;20050;-84
2021/09/18 14:10:21;;;;;;;7.57;4.25;;;;;;;;;;5035155;28;20057;-84
2021/09/18 14:12:48;;;;;;;7.18;5.18;;;;;;;;;;5033688;28;20045;-85
2021/09/18 14:15:15;;;;;;;6.88;4.82;;;;;;;;;;5033776;28;20082;-85
2021/09/18 14:17:42;;;;;;;5.95;4.20;;;;;;;;;;5034244;28;20057;-84
2021/09/18 14:20:09;;;;;;;6.45;4.35;;;;;;;;;;5033935;28;20077;-84
2021/09/18 14:22:37;;;;;;;7.10;4.47;;;;;;;;;;5033432;28;20050;-85
2021/09/18 14:25:06;;;;;;;7.28;4.65;;;;;;;;;;5033967;28;20068;-84
2021/09/18 14:27:33;;;;;;;5.72;3.95;;;;;;;;;;5033909;28;20480;-84
2021/09/18 14:30:00;;;;;;;6.45;4.18;;;;;;;;;;5033710;28;20046;-85
2021/09/18 14:32:27;;;;;;;6.60;4.05;;;;;;;;;;5034015;28;20045;-85
2021/09/18 14:34:55;;;;;;;6.80;4.43;;;;;;;;;;5033407;28;20444;-85
2021/09/18 14:37:22;;;;;;;5.43;3.60;;;;;;;;;;5032920;28;20175;-84
2021/09/18 14:39:50;;;;;;;6.32;3.92;;;;;;;;;;5033462;28;20049;-85
2021/09/18 14:42:17;;;;;;;7.57;5.32;;;;;;;;;;5034478;28;20045;-85
2021/09/18 14:44:44;;;;;;;6.43;4.45;;;;;;;;;;5033654;28;20053;-85